sensor_id;sensor_type;location;lat;lon;timestamp;P1;durP1;ratioP1;P2;durP2;ratioP2
5217;SDS011;26539;51.064;6.346;2023-05-20T00:00:50;4.73;;;2.60;;
5217;SDS011;26539;51.064;6.346;2023-05-20T00:03:17;5.80;;;2.73;;
5217;SDS011;26539;51.064;6.346;2023-05-20T00:05:44;3.83;;;2.63;;
5217;SDS011;26539;51.064;6.346;2023-05-20T00:08:10;4.60;;;3.50;;
5217;SDS011;26539;51.064;6.346;2023-05-20T00:10:36;5.77;;;3.20;;
5217;SDS011;26539;51.064;6.346;2023-05-20T00:13:01;3.97;;;2.80;;
5217;SDS011;26539;51.064;6.346;2023-05-20T00:15:27;4.90;;;3.37;;
5217;SDS011;26539;51.064;6.346;2023-05-20T00:17:53;4.63;;;2.80;;
5217;SDS011;26539;51.064;6.346;2023-05-20T00:20:19;5.50;;;2.70;;
5217;SDS011;26539;51.064;6.346;2023-05-20T00:22:44;3.30;;;2.67;;
5217;SDS011;26539;51.064;6.346;2023-05-20T00:25:10;4.77;;;3.03;;
5217;SDS011;26539;51.064;6.346;2023-05-20T00:27:38;4.30;;;3.03;;
5217;SDS011;26539;51.064;6.346;2023-05-20T00:30:04;4.37;;;2.63;;
5217;SDS011;26539;51.064;6.346;2023-05-20T00:32:30;5.63;;;2.77;;
5217;SDS011;26539;51.064;6.346;2023-05-20T00:34:56;7.90;;;3.13;;
5217;SDS011;26539;51.064;6.346;2023-05-20T00:37:23;6.33;;;3.27;;
5217;SDS011;26539;51.064;6.346;2023-05-20T00:39:48;4.17;;;2.80;;
5217;SDS011;26539;51.064;6.346;2023-05-20T00:42:21;4.97;;;2.73;;
5217;SDS011;26539;51.064;6.346;2023-05-20T00:44:50;4.97;;;3.07;;
5217;SDS011;26539;51.064;6.346;2023-05-20T00:47:17;4.03;;;2.90;;
5217;SDS011;26539;51.064;6.346;2023-05-20T00:49:44;4.47;;;3.33;;
5217;SDS011;26539;51.064;6.346;2023-05-20T00:52:10;4.87;;;3.30;;
5217;SDS011;26539;51.064;6.346;2023-05-20T00:54:36;4.27;;;3.50;;
5217;SDS011;26539;51.064;6.346;2023-05-20T00:57:02;5.07;;;3.60;;
5217;SDS011;26539;51.064;6.346;2023-05-20T00:59:30;5.77;;;3.83;;
5217;SDS011;26539;51.064;6.346;2023-05-20T01:01:56;5.80;;;4.93;;
5217;SDS011;26539;51.064;6.346;2023-05-20T01:04:21;7.10;;;3.13;;
5217;SDS011;26539;51.064;6.346;2023-05-20T01:06:47;7.97;;;3.80;;
5217;SDS011;26539;51.064;6.346;2023-05-20T01:09:13;3.30;;;2.60;;
5217;SDS011;26539;51.064;6.346;2023-05-20T01:11:43;4.17;;;2.97;;
5217;SDS011;26539;51.064;6.346;2023-05-20T01:14:14;6.63;;;2.80;;
5217;SDS011;26539;51.064;6.346;2023-05-20T01:16:42;11.80;;;3.60;;
5217;SDS011;26539;51.064;6.346;2023-05-20T01:19:26;4.10;;;3.47;;
5217;SDS011;26539;51.064;6.346;2023-05-20T01:21:59;4.67;;;3.67;;
5217;SDS011;26539;51.064;6.346;2023-05-20T01:24:27;4.93;;;3.03;;
5217;SDS011;26539;51.064;6.346;2023-05-20T01:26:52;10.77;;;3.50;;
5217;SDS011;26539;51.064;6.346;2023-05-20T01:29:18;6.33;;;3.30;;
5217;SDS011;26539;51.064;6.346;2023-05-20T01:31:43;6.27;;;3.47;;
5217;SDS011;26539;51.064;6.346;2023-05-20T01:34:11;8.70;;;3.57;;
5217;SDS011;26539;51.064;6.346;2023-05-20T01:36:37;5.00;;;3.07;;
5217;SDS011;26539;51.064;6.346;2023-05-20T01:39:04;4.63;;;3.00;;
5217;SDS011;26539;51.064;6.346;2023-05-20T01:41:30;3.83;;;3.10;;
5217;SDS011;26539;51.064;6.346;2023-05-20T01:43:58;5.50;;;3.00;;
5217;SDS011;26539;51.064;6.346;2023-05-20T01:46:24;4.43;;;3.40;;
5217;SDS011;26539;51.064;6.346;2023-05-20T01:48:50;4.80;;;3.43;;
5217;SDS011;26539;51.064;6.346;2023-05-20T01:51:15;4.00;;;3.57;;
5217;SDS011;26539;51.064;6.346;2023-05-20T01:53:41;5.30;;;3.60;;
5217;SDS011;26539;51.064;6.346;2023-05-20T01:56:07;5.10;;;3.43;;
5217;SDS011;26539;51.064;6.346;2023-05-20T01:58:32;8.20;;;3.37;;
5217;SDS011;26539;51.064;6.346;2023-05-20T02:00:58;6.83;;;3.90;;
5217;SDS011;26539;51.064;6.346;2023-05-20T02:03:24;4.73;;;3.70;;
5217;SDS011;26539;51.064;6.346;2023-05-20T02:05:49;7.37;;;4.50;;
5217;SDS011;26539;51.064;6.346;2023-05-20T02:08:15;10.30;;;3.80;;
5217;SDS011;26539;51.064;6.346;2023-05-20T02:10:40;7.33;;;3.93;;
5217;SDS011;26539;51.064;6.346;2023-05-20T02:13:06;6.50;;;4.00;;
5217;SDS011;26539;51.064;6.346;2023-05-20T02:15:31;6.70;;;3.63;;
5217;SDS011;26539;51.064;6.346;2023-05-20T02:17:57;6.93;;;3.93;;
5217;SDS011;26539;51.064;6.346;2023-05-20T02:20:22;5.33;;;3.67;;
5217;SDS011;26539;51.064;6.346;2023-05-20T02:22:48;4.87;;;3.53;;
5217;SDS011;26539;51.064;6.346;2023-05-20T02:25:13;5.20;;;3.90;;
5217;SDS011;26539;51.064;6.346;2023-05-20T02:27:39;5.93;;;3.60;;
5217;SDS011;26539;51.064;6.346;2023-05-20T02:30:05;4.83;;;3.60;;
5217;SDS011;26539;51.064;6.346;2023-05-20T02:32:32;5.53;;;4.07;;
5217;SDS011;26539;51.064;6.346;2023-05-20T02:34:57;7.13;;;4.33;;
5217;SDS011;26539;51.064;6.346;2023-05-20T02:37:23;7.73;;;4.57;;
5217;SDS011;26539;51.064;6.346;2023-05-20T02:39:48;5.47;;;3.60;;
5217;SDS011;26539;51.064;6.346;2023-05-20T02:42:14;4.73;;;4.10;;
5217;SDS011;26539;51.064;6.346;2023-05-20T02:44:39;10.23;;;4.37;;
5217;SDS011;26539;51.064;6.346;2023-05-20T02:47:05;6.53;;;4.13;;
5217;SDS011;26539;51.064;6.346;2023-05-20T02:49:31;7.40;;;4.43;;
5217;SDS011;26539;51.064;6.346;2023-05-20T02:51:56;8.40;;;4.70;;
5217;SDS011;26539;51.064;6.346;2023-05-20T02:54:22;7.00;;;4.30;;
5217;SDS011;26539;51.064;6.346;2023-05-20T02:56:47;6.00;;;5.20;;
5217;SDS011;26539;51.064;6.346;2023-05-20T02:59:13;8.10;;;4.03;;
5217;SDS011;26539;51.064;6.346;2023-05-20T03:01:38;10.47;;;5.00;;
5217;SDS011;26539;51.064;6.346;2023-05-20T03:04:04;8.07;;;4.57;;
5217;SDS011;26539;51.064;6.346;2023-05-20T03:06:29;5.20;;;3.77;;
5217;SDS011;26539;51.064;6.346;2023-05-20T03:08:58;9.77;;;4.60;;
5217;SDS011;26539;51.064;6.346;2023-05-20T03:11:24;5.70;;;4.10;;
5217;SDS011;26539;51.064;6.346;2023-05-20T03:13:50;8.20;;;3.80;;
5217;SDS011;26539;51.064;6.346;2023-05-20T03:16:15;5.63;;;4.20;;
5217;SDS011;26539;51.064;6.346;2023-05-20T03:18:41;4.80;;;4.00;;
5217;SDS011;26539;51.064;6.346;2023-05-20T03:21:07;4.87;;;3.90;;
5217;SDS011;26539;51.064;6.346;2023-05-20T03:23:33;8.23;;;4.50;;
5217;SDS011;26539;51.064;6.346;2023-05-20T03:25:58;7.83;;;4.50;;
5217;SDS011;26539;51.064;6.346;2023-05-20T03:28:24;6.70;;;4.43;;
5217;SDS011;26539;51.064;6.346;2023-05-20T03:30:50;5.30;;;4.10;;
5217;SDS011;26539;51.064;6.346;2023-05-20T03:33:15;6.20;;;3.80;;
5217;SDS011;26539;51.064;6.346;2023-05-20T03:35:41;8.17;;;4.30;;
5217;SDS011;26539;51.064;6.346;2023-05-20T03:38:06;5.27;;;3.90;;
5217;SDS011;26539;51.064;6.346;2023-05-20T03:40:32;11.13;;;4.17;;
5217;SDS011;26539;51.064;6.346;2023-05-20T03:42:57;6.80;;;4.27;;
5217;SDS011;26539;51.064;6.346;2023-05-20T03:45:23;8.53;;;4.27;;
5217;SDS011;26539;51.064;6.346;2023-05-20T03:47:48;8.60;;;4.80;;
5217;SDS011;26539;51.064;6.346;2023-05-20T03:50:14;5.10;;;4.60;;
5217;SDS011;26539;51.064;6.346;2023-05-20T03:52:40;5.80;;;4.30;;
5217;SDS011;26539;51.064;6.346;2023-05-20T03:55:05;6.63;;;4.77;;
5217;SDS011;26539;51.064;6.346;2023-05-20T03:57:31;8.50;;;5.20;;
5217;SDS011;26539;51.064;6.346;2023-05-20T03:59:57;9.10;;;4.83;;
5217;SDS011;26539;51.064;6.346;2023-05-20T04:02:23;7.10;;;4.77;;
5217;SDS011;26539;51.064;6.346;2023-05-20T04:04:49;10.13;;;4.83;;
5217;SDS011;26539;51.064;6.346;2023-05-20T04:07:16;8.93;;;4.80;;
5217;SDS011;26539;51.064;6.346;2023-05-20T04:09:42;8.87;;;5.20;;
5217;SDS011;26539;51.064;6.346;2023-05-20T04:12:08;6.17;;;4.63;;
5217;SDS011;26539;51.064;6.346;2023-05-20T04:14:33;8.00;;;5.83;;
5217;SDS011;26539;51.064;6.346;2023-05-20T04:17:00;10.40;;;5.67;;
5217;SDS011;26539;51.064;6.346;2023-05-20T04:19:29;5.87;;;5.00;;
5217;SDS011;26539;51.064;6.346;2023-05-20T04:21:55;7.23;;;4.93;;
5217;SDS011;26539;51.064;6.346;2023-05-20T04:24:21;5.23;;;4.03;;
5217;SDS011;26539;51.064;6.346;2023-05-20T04:26:49;6.43;;;4.30;;
5217;SDS011;26539;51.064;6.346;2023-05-20T04:29:18;7.20;;;4.70;;
5217;SDS011;26539;51.064;6.346;2023-05-20T04:31:46;7.53;;;4.70;;
5217;SDS011;26539;51.064;6.346;2023-05-20T04:34:13;5.43;;;3.77;;
5217;SDS011;26539;51.064;6.346;2023-05-20T04:36:38;8.53;;;4.60;;
5217;SDS011;26539;51.064;6.346;2023-05-20T04:39:04;6.10;;;4.30;;
5217;SDS011;26539;51.064;6.346;2023-05-20T04:41:31;7.27;;;4.03;;
5217;SDS011;26539;51.064;6.346;2023-05-20T04:43:57;5.63;;;3.93;;
5217;SDS011;26539;51.064;6.346;2023-05-20T04:46:24;5.40;;;3.80;;
5217;SDS011;26539;51.064;6.346;2023-05-20T04:48:50;7.43;;;4.17;;
5217;SDS011;26539;51.064;6.346;2023-05-20T04:51:15;5.67;;;3.70;;
5217;SDS011;26539;51.064;6.346;2023-05-20T04:53:41;7.20;;;3.60;;
5217;SDS011;26539;51.064;6.346;2023-05-20T04:56:09;8.13;;;4.53;;
5217;SDS011;26539;51.064;6.346;2023-05-20T04:58:34;4.73;;;3.53;;
5217;SDS011;26539;51.064;6.346;2023-05-20T05:01:00;6.07;;;3.93;;
5217;SDS011;26539;51.064;6.346;2023-05-20T05:03:26;4.60;;;3.97;;
5217;SDS011;26539;51.064;6.346;2023-05-20T05:05:54;7.93;;;4.43;;
5217;SDS011;26539;51.064;6.346;2023-05-20T05:08:23;5.67;;;3.50;;
5217;SDS011;26539;51.064;6.346;2023-05-20T05:10:48;4.87;;;3.13;;
5217;SDS011;26539;51.064;6.346;2023-05-20T05:13:14;4.90;;;3.20;;
5217;SDS011;26539;51.064;6.346;2023-05-20T05:15:40;6.13;;;4.00;;
5217;SDS011;26539;51.064;6.346;2023-05-20T05:18:05;4.73;;;3.87;;
5217;SDS011;26539;51.064;6.346;2023-05-20T05:20:31;5.10;;;3.27;;
5217;SDS011;26539;51.064;6.346;2023-05-20T05:22:56;6.07;;;3.70;;
5217;SDS011;26539;51.064;6.346;2023-05-20T05:25:22;4.13;;;3.40;;
5217;SDS011;26539;51.064;6.346;2023-05-20T05:27:47;5.07;;;3.47;;
5217;SDS011;26539;51.064;6.346;2023-05-20T05:30:14;4.73;;;3.83;;
5217;SDS011;26539;51.064;6.346;2023-05-20T05:32:40;9.50;;;4.07;;
5217;SDS011;26539;51.064;6.346;2023-05-20T05:35:05;4.93;;;3.13;;
5217;SDS011;26539;51.064;6.346;2023-05-20T05:37:31;5.27;;;3.73;;
5217;SDS011;26539;51.064;6.346;2023-05-20T05:39:57;5.70;;;4.20;;
5217;SDS011;26539;51.064;6.346;2023-05-20T05:42:22;5.20;;;4.00;;
5217;SDS011;26539;51.064;6.346;2023-05-20T05:44:48;4.13;;;3.50;;
5217;SDS011;26539;51.064;6.346;2023-05-20T05:47:13;4.90;;;3.73;;
5217;SDS011;26539;51.064;6.346;2023-05-20T05:49:39;4.17;;;3.07;;
5217;SDS011;26539;51.064;6.346;2023-05-20T05:52:05;8.87;;;3.40;;
5217;SDS011;26539;51.064;6.346;2023-05-20T05:54:30;6.80;;;3.20;;
5217;SDS011;26539;51.064;6.346;2023-05-20T05:56:56;5.20;;;3.57;;
5217;SDS011;26539;51.064;6.346;2023-05-20T05:59:22;8.30;;;3.30;;
5217;SDS011;26539;51.064;6.346;2023-05-20T06:01:47;6.50;;;3.97;;
5217;SDS011;26539;51.064;6.346;2023-05-20T06:04:13;4.10;;;3.10;;
5217;SDS011;26539;51.064;6.346;2023-05-20T06:06:39;3.90;;;2.93;;
5217;SDS011;26539;51.064;6.346;2023-05-20T06:09:07;7.60;;;3.37;;
5217;SDS011;26539;51.064;6.346;2023-05-20T06:11:40;2.43;;;2.10;;
5217;SDS011;26539;51.064;6.346;2023-05-20T06:14:06;4.03;;;3.20;;
5217;SDS011;26539;51.064;6.346;2023-05-20T06:16:31;4.13;;;2.40;;
5217;SDS011;26539;51.064;6.346;2023-05-20T06:18:57;4.63;;;3.10;;
5217;SDS011;26539;51.064;6.346;2023-05-20T06:21:22;5.40;;;2.87;;
5217;SDS011;26539;51.064;6.346;2023-05-20T06:23:48;3.60;;;2.83;;
5217;SDS011;26539;51.064;6.346;2023-05-20T06:26:14;5.00;;;2.73;;
5217;SDS011;26539;51.064;6.346;2023-05-20T06:28:39;4.33;;;2.80;;
5217;SDS011;26539;51.064;6.346;2023-05-20T06:31:05;4.43;;;3.10;;
5217;SDS011;26539;51.064;6.346;2023-05-20T06:33:30;3.53;;;2.70;;
5217;SDS011;26539;51.064;6.346;2023-05-20T06:35:57;4.93;;;2.50;;
5217;SDS011;26539;51.064;6.346;2023-05-20T06:38:22;3.03;;;2.37;;
5217;SDS011;26539;51.064;6.346;2023-05-20T06:40:48;3.40;;;2.30;;
5217;SDS011;26539;51.064;6.346;2023-05-20T06:43:15;4.60;;;2.53;;
5217;SDS011;26539;51.064;6.346;2023-05-20T06:45:41;3.63;;;2.53;;
5217;SDS011;26539;51.064;6.346;2023-05-20T06:48:07;3.00;;;2.40;;
5217;SDS011;26539;51.064;6.346;2023-05-20T06:50:33;4.33;;;2.27;;
5217;SDS011;26539;51.064;6.346;2023-05-20T06:52:58;6.73;;;2.20;;
5217;SDS011;26539;51.064;6.346;2023-05-20T06:55:25;2.90;;;2.43;;
5217;SDS011;26539;51.064;6.346;2023-05-20T06:57:50;2.27;;;2.07;;
5217;SDS011;26539;51.064;6.346;2023-05-20T07:00:16;3.23;;;2.33;;
5217;SDS011;26539;51.064;6.346;2023-05-20T07:02:41;4.80;;;2.17;;
5217;SDS011;26539;51.064;6.346;2023-05-20T07:05:07;4.20;;;2.70;;
5217;SDS011;26539;51.064;6.346;2023-05-20T07:07:33;3.40;;;2.53;;
5217;SDS011;26539;51.064;6.346;2023-05-20T07:09:59;3.20;;;2.40;;
5217;SDS011;26539;51.064;6.346;2023-05-20T07:12:25;2.50;;;2.30;;
5217;SDS011;26539;51.064;6.346;2023-05-20T07:14:50;4.33;;;2.43;;
5217;SDS011;26539;51.064;6.346;2023-05-20T07:17:16;2.53;;;2.33;;
5217;SDS011;26539;51.064;6.346;2023-05-20T07:19:44;5.10;;;3.23;;
5217;SDS011;26539;51.064;6.346;2023-05-20T07:22:09;3.77;;;2.40;;
5217;SDS011;26539;51.064;6.346;2023-05-20T07:24:35;3.40;;;2.90;;
5217;SDS011;26539;51.064;6.346;2023-05-20T07:27:02;4.03;;;2.70;;
5217;SDS011;26539;51.064;6.346;2023-05-20T07:29:27;4.73;;;2.60;;
5217;SDS011;26539;51.064;6.346;2023-05-20T07:31:53;3.30;;;2.30;;
5217;SDS011;26539;51.064;6.346;2023-05-20T07:34:18;4.33;;;2.73;;
5217;SDS011;26539;51.064;6.346;2023-05-20T07:36:44;4.47;;;2.60;;
5217;SDS011;26539;51.064;6.346;2023-05-20T07:39:10;4.10;;;2.20;;
5217;SDS011;26539;51.064;6.346;2023-05-20T07:41:38;5.43;;;3.20;;
5217;SDS011;26539;51.064;6.346;2023-05-20T07:44:04;3.10;;;2.80;;
5217;SDS011;26539;51.064;6.346;2023-05-20T07:46:32;4.30;;;3.70;;
5217;SDS011;26539;51.064;6.346;2023-05-20T07:48:58;5.93;;;3.67;;
5217;SDS011;26539;51.064;6.346;2023-05-20T07:51:24;3.50;;;2.90;;
5217;SDS011;26539;51.064;6.346;2023-05-20T07:53:52;3.13;;;2.70;;
5217;SDS011;26539;51.064;6.346;2023-05-20T07:56:17;8.53;;;3.73;;
5217;SDS011;26539;51.064;6.346;2023-05-20T07:58:50;3.70;;;2.90;;
5217;SDS011;26539;51.064;6.346;2023-05-20T08:01:16;7.00;;;3.90;;
5217;SDS011;26539;51.064;6.346;2023-05-20T08:03:42;3.90;;;3.40;;
5217;SDS011;26539;51.064;6.346;2023-05-20T08:06:07;4.83;;;3.47;;
5217;SDS011;26539;51.064;6.346;2023-05-20T08:08:36;4.40;;;3.27;;
5217;SDS011;26539;51.064;6.346;2023-05-20T08:11:04;4.00;;;3.40;;
5217;SDS011;26539;51.064;6.346;2023-05-20T08:13:29;10.73;;;3.77;;
5217;SDS011;26539;51.064;6.346;2023-05-20T08:15:55;4.10;;;3.20;;
5217;SDS011;26539;51.064;6.346;2023-05-20T08:18:21;4.30;;;3.07;;
5217;SDS011;26539;51.064;6.346;2023-05-20T08:20:47;7.33;;;2.97;;
5217;SDS011;26539;51.064;6.346;2023-05-20T08:23:12;4.17;;;3.00;;
5217;SDS011;26539;51.064;6.346;2023-05-20T08:25:38;4.80;;;2.90;;
5217;SDS011;26539;51.064;6.346;2023-05-20T08:28:04;4.30;;;2.53;;
5217;SDS011;26539;51.064;6.346;2023-05-20T08:30:31;5.20;;;3.40;;
5217;SDS011;26539;51.064;6.346;2023-05-20T08:32:57;5.00;;;3.37;;
5217;SDS011;26539;51.064;6.346;2023-05-20T08:35:23;7.80;;;3.37;;
5217;SDS011;26539;51.064;6.346;2023-05-20T08:37:49;4.70;;;3.30;;
5217;SDS011;26539;51.064;6.346;2023-05-20T08:40:17;4.47;;;4.07;;
5217;SDS011;26539;51.064;6.346;2023-05-20T08:42:44;3.57;;;3.07;;
5217;SDS011;26539;51.064;6.346;2023-05-20T08:45:12;6.33;;;3.33;;
5217;SDS011;26539;51.064;6.346;2023-05-20T08:47:41;4.97;;;3.37;;
5217;SDS011;26539;51.064;6.346;2023-05-20T08:50:08;7.50;;;3.30;;
5217;SDS011;26539;51.064;6.346;2023-05-20T08:52:35;4.63;;;3.03;;
5217;SDS011;26539;51.064;6.346;2023-05-20T08:55:02;4.77;;;3.50;;
5217;SDS011;26539;51.064;6.346;2023-05-20T08:57:31;4.53;;;3.17;;
5217;SDS011;26539;51.064;6.346;2023-05-20T08:59:58;5.90;;;3.50;;
5217;SDS011;26539;51.064;6.346;2023-05-20T09:02:24;3.43;;;2.90;;
5217;SDS011;26539;51.064;6.346;2023-05-20T09:04:49;3.73;;;2.77;;
5217;SDS011;26539;51.064;6.346;2023-05-20T09:07:28;3.43;;;3.10;;
5217;SDS011;26539;51.064;6.346;2023-05-20T09:09:54;3.93;;;3.50;;
5217;SDS011;26539;51.064;6.346;2023-05-20T09:12:20;4.90;;;3.67;;
5217;SDS011;26539;51.064;6.346;2023-05-20T09:14:46;2.97;;;2.73;;
5217;SDS011;26539;51.064;6.346;2023-05-20T09:17:11;5.27;;;3.30;;
5217;SDS011;26539;51.064;6.346;2023-05-20T09:19:37;5.53;;;3.30;;
5217;SDS011;26539;51.064;6.346;2023-05-20T09:22:03;3.63;;;3.20;;
5217;SDS011;26539;51.064;6.346;2023-05-20T09:24:29;3.90;;;3.40;;
5217;SDS011;26539;51.064;6.346;2023-05-20T09:26:55;4.50;;;3.07;;
5217;SDS011;26539;51.064;6.346;2023-05-20T09:29:22;5.40;;;3.50;;
5217;SDS011;26539;51.064;6.346;2023-05-20T09:31:48;6.57;;;3.70;;
5217;SDS011;26539;51.064;6.346;2023-05-20T09:34:15;5.30;;;3.30;;
5217;SDS011;26539;51.064;6.346;2023-05-20T09:36:42;3.47;;;3.17;;
5217;SDS011;26539;51.064;6.346;2023-05-20T09:39:13;4.80;;;3.50;;
5217;SDS011;26539;51.064;6.346;2023-05-20T09:41:56;8.40;;;3.27;;
5217;SDS011;26539;51.064;6.346;2023-05-20T09:44:27;3.77;;;3.40;;
5217;SDS011;26539;51.064;6.346;2023-05-20T09:46:53;4.00;;;3.60;;
5217;SDS011;26539;51.064;6.346;2023-05-20T09:49:20;5.57;;;3.30;;
5217;SDS011;26539;51.064;6.346;2023-05-20T09:51:47;4.90;;;3.33;;
5217;SDS011;26539;51.064;6.346;2023-05-20T09:54:15;6.20;;;3.53;;
5217;SDS011;26539;51.064;6.346;2023-05-20T09:56:43;4.27;;;3.90;;
5217;SDS011;26539;51.064;6.346;2023-05-20T09:59:12;4.80;;;3.57;;
5217;SDS011;26539;51.064;6.346;2023-05-20T10:04:56;3.53;;;2.97;;
5217;SDS011;26539;51.064;6.346;2023-05-20T10:10:49;4.50;;;4.10;;
5217;SDS011;26539;51.064;6.346;2023-05-20T10:19:39;5.33;;;4.10;;
5217;SDS011;26539;51.064;6.346;2023-05-20T10:22:07;7.50;;;6.80;;
5217;SDS011;26539;51.064;6.346;2023-05-20T10:24:38;4.70;;;4.30;;
5217;SDS011;26539;51.064;6.346;2023-05-20T10:27:13;5.40;;;4.93;;
5217;SDS011;26539;51.064;6.346;2023-05-20T10:29:50;6.77;;;4.27;;
5217;SDS011;26539;51.064;6.346;2023-05-20T10:32:24;9.13;;;3.90;;
5217;SDS011;26539;51.064;6.346;2023-05-20T10:34:52;4.60;;;4.20;;
5217;SDS011;26539;51.064;6.346;2023-05-20T10:37:27;5.67;;;4.10;;
5217;SDS011;26539;51.064;6.346;2023-05-20T10:42:32;4.90;;;4.40;;
5217;SDS011;26539;51.064;6.346;2023-05-20T10:44:58;6.43;;;4.10;;
5217;SDS011;26539;51.064;6.346;2023-05-20T10:47:27;5.93;;;4.43;;
5217;SDS011;26539;51.064;6.346;2023-05-20T10:49:52;6.83;;;4.70;;
5217;SDS011;26539;51.064;6.346;2023-05-20T10:52:18;6.77;;;4.63;;
5217;SDS011;26539;51.064;6.346;2023-05-20T10:54:57;6.77;;;4.50;;
5217;SDS011;26539;51.064;6.346;2023-05-20T10:57:25;4.10;;;3.80;;
5217;SDS011;26539;51.064;6.346;2023-05-20T10:59:56;7.37;;;4.53;;
5217;SDS011;26539;51.064;6.346;2023-05-20T11:02:24;7.40;;;5.17;;
5217;SDS011;26539;51.064;6.346;2023-05-20T11:04:56;5.23;;;4.20;;
5217;SDS011;26539;51.064;6.346;2023-05-20T11:07:26;4.17;;;3.73;;
5217;SDS011;26539;51.064;6.346;2023-05-20T11:09:53;6.43;;;4.13;;
5217;SDS011;26539;51.064;6.346;2023-05-20T11:12:22;4.70;;;4.13;;
5217;SDS011;26539;51.064;6.346;2023-05-20T11:14:48;5.83;;;4.80;;
5217;SDS011;26539;51.064;6.346;2023-05-20T11:17:14;4.63;;;4.23;;
5217;SDS011;26539;51.064;6.346;2023-05-20T11:19:41;4.50;;;4.10;;
5217;SDS011;26539;51.064;6.346;2023-05-20T11:22:07;5.70;;;4.37;;
5217;SDS011;26539;51.064;6.346;2023-05-20T11:24:33;5.80;;;4.80;;
5217;SDS011;26539;51.064;6.346;2023-05-20T11:26:59;4.60;;;4.20;;
5217;SDS011;26539;51.064;6.346;2023-05-20T11:29:26;5.43;;;4.93;;
5217;SDS011;26539;51.064;6.346;2023-05-20T11:31:52;6.03;;;5.20;;
5217;SDS011;26539;51.064;6.346;2023-05-20T11:34:19;5.70;;;5.20;;
5217;SDS011;26539;51.064;6.346;2023-05-20T11:36:46;6.20;;;4.23;;
5217;SDS011;26539;51.064;6.346;2023-05-20T11:39:12;4.33;;;3.53;;
5217;SDS011;26539;51.064;6.346;2023-05-20T11:41:39;6.33;;;4.83;;
5217;SDS011;26539;51.064;6.346;2023-05-20T11:44:08;6.37;;;4.53;;
5217;SDS011;26539;51.064;6.346;2023-05-20T11:46:41;5.30;;;4.70;;
5217;SDS011;26539;51.064;6.346;2023-05-20T11:49:08;4.70;;;4.20;;
5217;SDS011;26539;51.064;6.346;2023-05-20T11:51:37;6.23;;;4.70;;
5217;SDS011;26539;51.064;6.346;2023-05-20T11:54:04;5.77;;;5.07;;
5217;SDS011;26539;51.064;6.346;2023-05-20T11:56:34;6.87;;;5.50;;
5217;SDS011;26539;51.064;6.346;2023-05-20T11:59:01;6.70;;;4.80;;
5217;SDS011;26539;51.064;6.346;2023-05-20T12:01:33;7.00;;;5.20;;
5217;SDS011;26539;51.064;6.346;2023-05-20T12:04:07;5.47;;;5.00;;
5217;SDS011;26539;51.064;6.346;2023-05-20T12:06:33;7.70;;;5.00;;
5217;SDS011;26539;51.064;6.346;2023-05-20T12:09:01;5.20;;;4.63;;
5217;SDS011;26539;51.064;6.346;2023-05-20T12:11:30;6.43;;;5.30;;
5217;SDS011;26539;51.064;6.346;2023-05-20T12:14:04;5.90;;;5.30;;
5217;SDS011;26539;51.064;6.346;2023-05-20T12:16:32;7.23;;;5.33;;
5217;SDS011;26539;51.064;6.346;2023-05-20T12:18:58;7.13;;;5.70;;
5217;SDS011;26539;51.064;6.346;2023-05-20T12:21:24;6.30;;;5.70;;
5217;SDS011;26539;51.064;6.346;2023-05-20T12:23:50;8.77;;;6.70;;
5217;SDS011;26539;51.064;6.346;2023-05-20T12:26:21;6.13;;;5.53;;
5217;SDS011;26539;51.064;6.346;2023-05-20T12:28:51;9.83;;;5.93;;
5217;SDS011;26539;51.064;6.346;2023-05-20T12:31:17;6.30;;;5.77;;
5217;SDS011;26539;51.064;6.346;2023-05-20T12:33:43;6.53;;;5.43;;
5217;SDS011;26539;51.064;6.346;2023-05-20T12:36:09;6.20;;;5.70;;
5217;SDS011;26539;51.064;6.346;2023-05-20T12:38:37;9.40;;;6.37;;
5217;SDS011;26539;51.064;6.346;2023-05-20T12:41:02;7.63;;;6.90;;
5217;SDS011;26539;51.064;6.346;2023-05-20T12:43:28;7.50;;;6.90;;
5217;SDS011;26539;51.064;6.346;2023-05-20T12:45:53;8.63;;;6.20;;
5217;SDS011;26539;51.064;6.346;2023-05-20T12:48:19;7.60;;;6.23;;
5217;SDS011;26539;51.064;6.346;2023-05-20T12:50:44;6.17;;;5.57;;
5217;SDS011;26539;51.064;6.346;2023-05-20T12:53:10;7.23;;;6.53;;
5217;SDS011;26539;51.064;6.346;2023-05-20T12:55:38;6.20;;;5.53;;
5217;SDS011;26539;51.064;6.346;2023-05-20T12:58:04;8.70;;;5.93;;
5217;SDS011;26539;51.064;6.346;2023-05-20T13:00:32;6.43;;;5.83;;
5217;SDS011;26539;51.064;6.346;2023-05-20T13:02:58;7.37;;;6.63;;
5217;SDS011;26539;51.064;6.346;2023-05-20T13:05:24;8.40;;;5.47;;
5217;SDS011;26539;51.064;6.346;2023-05-20T13:07:49;7.23;;;6.33;;
5217;SDS011;26539;51.064;6.346;2023-05-20T13:10:15;7.93;;;6.13;;
5217;SDS011;26539;51.064;6.346;2023-05-20T13:12:41;6.00;;;5.40;;
5217;SDS011;26539;51.064;6.346;2023-05-20T13:15:10;9.53;;;6.13;;
5217;SDS011;26539;51.064;6.346;2023-05-20T13:17:37;6.77;;;6.07;;
5217;SDS011;26539;51.064;6.346;2023-05-20T13:20:03;11.37;;;6.77;;
5217;SDS011;26539;51.064;6.346;2023-05-20T13:22:28;6.60;;;5.70;;
5217;SDS011;26539;51.064;6.346;2023-05-20T13:24:54;7.57;;;6.40;;
5217;SDS011;26539;51.064;6.346;2023-05-20T13:27:19;6.53;;;5.80;;
5217;SDS011;26539;51.064;6.346;2023-05-20T13:29:45;6.57;;;5.97;;
5217;SDS011;26539;51.064;6.346;2023-05-20T13:32:10;7.73;;;5.73;;
5217;SDS011;26539;51.064;6.346;2023-05-20T13:34:36;10.33;;;5.40;;
5217;SDS011;26539;51.064;6.346;2023-05-20T13:37:02;6.67;;;5.30;;
5217;SDS011;26539;51.064;6.346;2023-05-20T13:39:28;7.43;;;6.73;;
5217;SDS011;26539;51.064;6.346;2023-05-20T13:41:54;8.00;;;5.63;;
5217;SDS011;26539;51.064;6.346;2023-05-20T13:44:19;6.63;;;5.93;;
5217;SDS011;26539;51.064;6.346;2023-05-20T13:46:45;7.60;;;6.50;;
5217;SDS011;26539;51.064;6.346;2023-05-20T13:49:10;5.33;;;4.93;;
5217;SDS011;26539;51.064;6.346;2023-05-20T13:51:36;6.93;;;5.80;;
5217;SDS011;26539;51.064;6.346;2023-05-20T13:54:01;6.43;;;5.83;;
5217;SDS011;26539;51.064;6.346;2023-05-20T13:56:27;6.70;;;6.03;;
5217;SDS011;26539;51.064;6.346;2023-05-20T13:58:53;7.47;;;5.97;;
5217;SDS011;26539;51.064;6.346;2023-05-20T14:01:18;5.90;;;5.27;;
5217;SDS011;26539;51.064;6.346;2023-05-20T14:03:44;6.90;;;6.03;;
5217;SDS011;26539;51.064;6.346;2023-05-20T14:06:10;6.43;;;5.00;;
5217;SDS011;26539;51.064;6.346;2023-05-20T14:08:36;6.80;;;6.13;;
5217;SDS011;26539;51.064;6.346;2023-05-20T14:11:01;7.20;;;5.33;;
5217;SDS011;26539;51.064;6.346;2023-05-20T14:13:27;7.70;;;5.43;;
5217;SDS011;26539;51.064;6.346;2023-05-20T14:15:53;6.60;;;5.90;;
5217;SDS011;26539;51.064;6.346;2023-05-20T14:18:18;5.63;;;4.83;;
5217;SDS011;26539;51.064;6.346;2023-05-20T14:20:45;5.70;;;5.20;;
5217;SDS011;26539;51.064;6.346;2023-05-20T14:23:11;5.60;;;5.10;;
5217;SDS011;26539;51.064;6.346;2023-05-20T14:25:37;7.27;;;5.53;;
5217;SDS011;26539;51.064;6.346;2023-05-20T14:28:03;5.97;;;5.43;;
5217;SDS011;26539;51.064;6.346;2023-05-20T14:30:29;5.67;;;5.03;;
5217;SDS011;26539;51.064;6.346;2023-05-20T14:32:55;5.50;;;5.00;;
5217;SDS011;26539;51.064;6.346;2023-05-20T14:35:21;5.77;;;5.17;;
5217;SDS011;26539;51.064;6.346;2023-05-20T14:37:46;5.10;;;4.57;;
5217;SDS011;26539;51.064;6.346;2023-05-20T14:40:12;5.80;;;4.90;;
5217;SDS011;26539;51.064;6.346;2023-05-20T14:42:38;6.47;;;4.83;;
5217;SDS011;26539;51.064;6.346;2023-05-20T14:45:03;5.37;;;4.87;;
5217;SDS011;26539;51.064;6.346;2023-05-20T14:47:29;5.70;;;5.10;;
5217;SDS011;26539;51.064;6.346;2023-05-20T14:49:55;6.40;;;5.33;;
5217;SDS011;26539;51.064;6.346;2023-05-20T14:52:21;4.77;;;4.03;;
5217;SDS011;26539;51.064;6.346;2023-05-20T14:54:47;10.23;;;5.30;;
5217;SDS011;26539;51.064;6.346;2023-05-20T14:57:12;7.17;;;5.17;;
5217;SDS011;26539;51.064;6.346;2023-05-20T14:59:39;10.77;;;5.13;;
5217;SDS011;26539;51.064;6.346;2023-05-20T15:02:05;5.30;;;4.73;;
5217;SDS011;26539;51.064;6.346;2023-05-20T15:04:31;5.30;;;4.53;;
5217;SDS011;26539;51.064;6.346;2023-05-20T15:06:57;9.80;;;5.30;;
5217;SDS011;26539;51.064;6.346;2023-05-20T15:09:22;5.97;;;5.27;;
5217;SDS011;26539;51.064;6.346;2023-05-20T15:11:48;5.83;;;4.40;;